Time;durP1;ratioP1;P1;durP2;ratioP2;P2;SDS_P1;SDS_P2;PMS_P1;PMS_P2;Temp;Humidity;BMP_temperature;BMP_pressure;BME280_temperature;BME280_humidity;BME280_pressure;Samples;Min_cycle;Max_cycle;Signal;HPM_P1;HPM_P2
2023/01/17 00:01:49;;;;;;;38.03;19.38;;;;;;;8.55;84.43;100078.03;4989862;28;20050;-81
2023/01/17 00:09:53;;;;;;;41.63;19.90;;;;;;;8.41;84.62;100058.06;4992772;28;20069;-81
2023/01/17 00:12:44;;;;;;;35.67;19.20;;;;;;;8.38;84.73;100055.66;4976494;28;20042;-82
2023/01/17 00:15:10;;;;;;;37.75;19.02;;;;;;;8.38;84.70;100057.47;4973046;28;20137;-82
2023/01/17 00:17:36;;;;;;;39.55;18.88;;;;;;;8.27;84.99;100053.28;4987886;28;20034;-84
2023/01/17 01:35:23;;;;;;;18.38;11.73;;;;;;;7.86;80.50;100010.22;4983194;28;20053;-82
2023/01/17 01:37:48;;;;;;;17.30;10.65;;;;;;;7.97;79.83;100003.78;4985336;28;20138;-82
2023/01/17 01:40:14;;;;;;;17.73;10.07;;;;;;;8.07;79.49;100014.34;4950261;28;20049;-82
2023/01/17 01:42:57;;;;;;;17.88;10.15;;;;;;;7.90;79.10;99970.63;4987645;28;20034;-84
2023/01/17 01:45:27;;;;;;;12.98;8.50;;;;;;;8.20;78.34;100020.94;4983942;28;20065;-82
2023/01/17 01:48:10;;;;;;;14.38;8.25;;;;;;;8.44;77.25;100022.88;4972285;28;20027;-82
2023/01/17 01:50:36;;;;;;;14.63;7.82;;;;;;;8.55;76.12;100002.19;4983322;28;20129;-83
2023/01/17 01:53:07;;;;;;;13.50;7.85;;;;;;;8.81;75.68;100010.09;4968854;28;20113;-81
2023/01/17 01:55:38;;;;;;;11.25;7.88;;;;;;;8.66;75.39;99977.72;4985439;28;20434;-82
2023/01/17 01:58:13;;;;;;;13.60;7.70;;;;;;;8.86;75.06;99978.25;4959129;28;20050;-83
2023/01/17 02:00:39;;;;;;;12.50;8.50;;;;;;;8.79;75.07;99990.66;4972201;28;20042;-83
2023/01/17 02:03:12;;;;;;;16.95;9.05;;;;;;;8.87;74.79;99985.28;4974918;28;20181;-82
2023/01/17 02:05:37;;;;;;;15.45;9.07;;;;;;;8.95;74.36;99981.78;4987943;28;20037;-83
2023/01/17 02:08:06;;;;;;;14.17;9.07;;;;;;;9.06;74.38;99986.81;4992133;28;20034;-84
2023/01/17 02:10:38;;;;;;;13.40;8.32;;;;;;;8.99;74.55;99985.78;4991962;28;20309;-86
2023/01/17 02:13:04;;;;;;;13.48;9.35;;;;;;;8.99;74.28;99983.13;4989864;28;20086;-83
2023/01/17 02:15:48;;;;;;;16.10;9.07;;;;;;;8.88;74.66;99962.84;4985462;28;20047;-82
2023/01/17 02:18:37;;;;;;;16.05;10.02;;;;;;;8.65;75.49;99962.66;4982618;28;20041;-81
2023/01/17 02:21:12;;;;;;;18.15;9.77;;;;;;;8.75;75.44;99975.91;4991059;28;20100;-81
2023/01/17 02:23:46;;;;;;;18.13;10.15;;;;;;;8.68;75.81;99946.25;4990955;28;20112;-81
2023/01/17 02:26:35;;;;;;;15.93;10.70;;;;;;;8.81;75.56;99960.00;4991599;28;20042;-80
2023/01/17 02:29:20;;;;;;;17.92;10.45;;;;;;;8.88;75.79;99968.22;5008214;28;21002;-84
2023/01/17 02:31:57;;;;;;;15.98;9.98;;;;;;;8.85;75.88;99955.16;5010762;28;20564;-83
2023/01/17 02:34:48;;;;;;;16.95;10.88;;;;;;;8.90;75.72;99971.56;4973350;28;20034;-80
2023/01/17 02:37:43;;;;;;;16.40;10.63;;;;;;;8.80;76.13;99970.88;5007329;28;20042;-82
2023/01/17 02:40:16;;;;;;;17.42;10.07;;;;;;;8.82;75.88;99960.81;4973918;28;20049;-83
2023/01/17 02:42:45;;;;;;;14.82;10.15;;;;;;;8.83;75.87;99951.78;5009880;28;20532;-82
2023/01/17 02:45:16;;;;;;;18.70;10.30;;;;;;;8.77;76.08;99944.41;4973149;28;20038;-82
2023/01/17 02:47:42;;;;;;;16.45;10.35;;;;;;;8.64;76.81;99937.72;5004869;28;20072;-82
2023/01/17 02:50:36;;;;;;;17.40;9.88;;;;;;;8.41;77.44;99920.59;4988018;28;20494;-83
2023/01/17 02:53:21;;;;;;;14.55;10.15;;;;;;;8.37;78.13;99935.28;4996597;28;20525;-82
2023/01/17 02:56:13;;;;;;;20.70;10.88;;;;;;;8.44;77.86;99926.44;4993039;28;20128;-82
2023/01/17 02:58:38;;;;;;;18.88;10.65;;;;;;;8.46;78.05;99931.66;4977279;28;20414;-83
2023/01/17 03:01:23;;;;;;;15.63;9.80;;;;;;;8.49;77.95;99927.81;5009597;28;20117;-83
2023/01/17 03:03:58;;;;;;;17.83;10.40;;;;;;;8.52;78.17;99927.47;4991181;28;20372;-82
2023/01/17 03:06:45;;;;;;;19.58;10.20;;;;;;;8.52;78.31;99938.19;4986965;28;20065;-82
2023/01/17 03:09:11;;;;;;;15.88;10.23;;;;;;;8.34;78.64;99922.22;5008758;28;20112;-82
2023/01/17 03:11:38;;;;;;;19.45;10.73;;;;;;;8.51;78.28;99950.75;4974981;28;20081;-83
2023/01/17 03:14:04;;;;;;;17.80;9.32;;;;;;;8.35;78.98;99921.22;4962914;28;20049;-82
2023/01/17 03:16:32;;;;;;;17.92;10.02;;;;;;;8.60;78.54;99944.41;4990916;28;20038;-82
2023/01/17 03:18:58;;;;;;;16.80;10.20;;;;;;;8.46;78.36;99923.63;4991140;28;20168;-83
2023/01/17 03:21:23;;;;;;;13.57;8.85;;;;;;;8.31;78.38;99909.16;5010653;28;20461;-82
2023/01/17 03:23:49;;;;;;;14.70;9.38;;;;;;;8.47;78.92;99925.28;4993625;28;20026;-82
2023/01/17 03:26:14;;;;;;;18.77;9.43;;;;;;;8.61;78.41;99932.66;4989368;28;20042;-81
2023/01/17 03:28:41;;;;;;;14.88;9.50;;;;;;;8.57;78.94;99935.84;4967866;28;20462;-83
2023/01/17 03:31:06;;;;;;;15.60;8.98;;;;;;;8.44;79.23;99920.25;4958784;28;20521;-84
2023/01/17 03:33:32;;;;;;;21.15;9.57;;;;;;;8.45;79.20;99919.25;4993869;28;20042;-82
2023/01/17 03:36:00;;;;;;;16.25;9.18;;;;;;;8.44;80.06;99922.94;5010703;28;20034;-82
2023/01/17 03:38:27;;;;;;;15.52;9.13;;;;;;;8.35;79.67;99899.78;5011147;28;20960;-84
2023/01/17 03:40:54;;;;;;;15.38;8.90;;;;;;;8.56;79.34;99923.47;4980312;28;20512;-81
2023/01/17 03:43:22;;;;;;;15.18;8.82;;;;;;;8.66;79.10;99922.31;5003759;28;20096;-82
2023/01/17 03:45:53;;;;;;;15.95;9.20;;;;;;;8.55;79.50;99917.28;5022330;28;20960;-80
2023/01/17 03:48:19;;;;;;;18.45;8.55;;;;;;;8.60;79.44;99925.63;4989791;28;20472;-83
2023/01/17 03:50:48;;;;;;;;;;;;;;;8.69;78.88;99928.34;5012443;28;20046;-81
2023/01/17 03:53:15;;;;;;;16.33;9.68;;;;;;;8.68;78.40;99922.13;4993755;28;19949;-82
2023/01/17 03:55:41;;;;;;;12.55;9.05;;;;;;;8.63;79.17;99927.97;4974567;28;20038;-84
2023/01/17 03:58:06;;;;;;;18.27;9.80;;;;;;;8.57;79.46;99933.16;4959738;28;20045;-85
2023/01/17 04:00:32;;;;;;;18.27;10.57;;;;;;;8.50;78.96;99908.91;4989884;28;20465;-82
2023/01/17 04:03:00;;;;;;;16.33;9.55;;;;;;;8.55;79.17;99928.00;4974785;28;20046;-82
2023/01/17 04:05:28;;;;;;;17.10;10.38;;;;;;;8.57;79.38;99925.97;4973864;28;20042;-83
2023/01/17 04:07:53;;;;;;;19.23;9.60;;;;;;;8.55;79.23;99937.88;4988295;28;20136;-82
2023/01/17 04:10:19;;;;;;;16.08;10.43;;;;;;;8.48;79.67;99943.06;5007610;28;20029;-83
2023/01/17 04:12:44;;;;;;;17.48;10.80;;;;;;;8.40;79.89;99934.97;4973668;28;20052;-82
2023/01/17 04:15:13;;;;;;;17.60;9.68;;;;;;;8.42;79.97;99925.78;4974946;28;20065;-81
2023/01/17 04:17:39;;;;;;;16.85;10.00;;;;;;;8.33;80.29;99923.22;5009241;28;20089;-83
2023/01/17 04:20:05;;;;;;;15.52;9.15;;;;;;;8.39;80.50;99930.59;4971604;28;20105;-84
2023/01/17 04:22:30;;;;;;;15.02;8.55;;;;;;;8.38;80.91;99940.50;5008217;28;20129;-82
2023/01/17 04:24:57;;;;;;;18.48;9.25;;;;;;;8.50;80.36;99914.25;4994362;28;20843;-82
2023/01/17 04:27:24;;;;;;;17.15;11.05;;;;;;;8.27;80.40;99905.16;4972183;28;20048;-82
2023/01/17 04:29:49;;;;;;;13.77;7.13;;;;;;;8.44;81.27;99909.53;4987699;28;20034;-82
2023/01/17 04:32:16;;;;;;;16.27;8.20;;;;;;;8.63;80.40;99941.38;4986840;28;20125;-81
2023/01/17 04:34:43;;;;;;;14.52;7.70;;;;;;;8.80;80.20;99942.25;4987503;28;20121;-81
2023/01/17 04:37:08;;;;;;;15.52;8.07;;;;;;;8.69;79.68;99896.19;4974909;28;20038;-84
2023/01/17 04:39:35;;;;;;;14.07;8.57;;;;;;;8.96;78.98;99933.34;4991227;28;20042;-83
2023/01/17 04:42:03;;;;;;;15.25;8.25;;;;;;;9.02;78.71;99926.50;4986644;28;20093;-83
2023/01/17 04:44:28;;;;;;;17.17;9.77;;;;;;;9.06;78.66;99936.72;4959558;28;20038;-83
2023/01/17 04:46:55;;;;;;;16.15;9.35;;;;;;;8.83;79.18;99936.53;4987345;28;20472;-82
2023/01/17 04:49:21;;;;;;;14.57;8.15;;;;;;;8.93;79.08;99930.19;4986744;28;20034;-84
2023/01/17 04:51:48;;;;;;;13.43;8.18;;;;;;;9.08;78.83;99934.69;4953789;28;20043;-84
2023/01/17 04:54:13;;;;;;;16.88;9.80;;;;;;;9.12;78.28;99942.41;4969971;28;20041;-81
2023/01/17 04:56:47;;;;;;;16.13;8.75;;;;;;;8.98;78.20;99920.63;4986100;28;20061;-83
2023/01/17 04:59:34;;;;;;;15.90;9.60;;;;;;;9.10;78.69;99953.28;4986130;28;20133;-84
2023/01/17 05:02:01;;;;;;;12.98;8.05;;;;;;;9.22;78.67;99956.47;4986014;28;20030;-83
2023/01/17 05:04:29;;;;;;;15.00;8.48;;;;;;;9.28;78.37;99948.56;4987358;28;20034;-84
2023/01/17 05:06:59;;;;;;;15.13;8.30;;;;;;;9.27;78.35;99960.31;4970815;28;20049;-82
2023/01/17 05:09:24;;;;;;;17.08;8.50;;;;;;;9.36;77.98;99937.00;4974631;28;20494;-82
2023/01/17 05:11:50;;;;;;;15.85;8.77;;;;;;;9.42;77.50;99941.69;4988515;28;20041;-82
2023/01/17 05:14:16;;;;;;;17.23;9.35;;;;;;;9.45;76.94;99935.97;4983458;28;20317;-81
2023/01/17 05:16:43;;;;;;;17.63;10.35;;;;;;;9.45;76.85;99949.38;4983629;28;20038;-80
2023/01/17 05:19:08;;;;;;;19.48;9.55;;;;;;;9.39;76.92;99952.75;4990241;28;20065;-83
2023/01/17 05:21:34;;;;;;;16.27;9.98;;;;;;;9.50;76.83;99955.09;4976952;28;20114;-81
2023/01/17 05:24:00;;;;;;;18.95;10.02;;;;;;;9.54;76.53;99949.38;4987715;28;20073;-81
2023/01/17 05:26:26;;;;;;;16.38;9.82;;;;;;;9.49;76.47;99942.66;4990343;28;20042;-81
2023/01/17 05:28:51;;;;;;;14.55;8.82;;;;;;;9.47;76.78;99925.91;4972731;28;20478;-84
2023/01/17 05:31:17;;;;;;;16.90;9.57;;;;;;;9.49;76.75;99937.31;4992644;28;20142;-84
2023/01/17 05:33:44;;;;;;;14.68;9.02;;;;;;;9.58;76.90;99946.19;4994806;28;20053;-83
2023/01/17 05:36:09;;;;;;;22.13;11.38;;;;;;;9.52;77.45;99950.38;4977245;28;20183;-83
2023/01/17 05:38:35;;;;;;;15.77;9.60;;;;;;;9.61;77.28;99947.69;4989235;28;20041;-83
2023/01/17 05:41:03;;;;;;;19.05;10.45;;;;;;;9.61;77.53;99967.28;4974863;28;20104;-84
2023/01/17 05:43:31;;;;;;;18.33;8.75;;;;;;;9.68;77.19;99967.44;4979070;28;20447;-84
2023/01/17 05:45:56;;;;;;;19.83;8.73;;;;;;;9.67;77.82;99957.75;4993784;28;20046;-83
2023/01/17 05:48:23;;;;;;;16.92;8.52;;;;;;;9.91;77.56;99973.75;4959782;28;20396;-84
2023/01/17 05:50:48;;;;;;;10.98;7.55;;;;;;;10.05;76.83;99963.31;5009095;28;20159;-84
2023/01/17 05:53:17;;;;;;;17.45;9.60;;;;;;;10.08;76.76;99962.94;4976613;28;20116;-83
2023/01/17 05:55:44;;;;;;;16.55;10.02;;;;;;;10.25;76.17;99979.81;4993350;28;20042;-83
2023/01/17 05:58:17;;;;;;;15.25;6.38;;;;;;;10.31;76.26;99976.47;4992483;28;20062;-84
2023/01/17 06:00:44;;;;;;;18.17;8.73;;;;;;;10.27;76.15;99986.69;5008869;28;20038;-84
2023/01/17 06:03:11;;;;;;;35.42;10.77;;;;;;;10.30;76.10;99997.13;4991590;28;20501;-83
2023/01/17 06:05:41;;;;;;;20.73;10.38;;;;;;;10.38;76.05;99995.41;4994448;28;20097;-84
2023/01/17 06:08:07;;;;;;;19.65;9.18;;;;;;;10.47;75.72;99981.75;4995171;28;20050;-84
2023/01/17 06:10:35;;;;;;;23.48;10.32;;;;;;;10.56;75.49;99982.56;4964179;28;20454;-86
2023/01/17 06:13:12;;;;;;;23.42;10.38;;;;;;;10.50;75.58;99977.88;4996739;28;20129;-87
2023/01/17 06:15:39;;;;;;;21.92;10.40;;;;;;;10.56;75.83;99983.38;5007660;28;20089;-82
2023/01/17 06:18:07;;;;;;;22.38;10.57;;;;;;;10.48;75.66;99969.16;5008919;28;20514;-81
2023/01/17 06:20:33;;;;;;;29.38;12.02;;;;;;;10.59;75.65;99975.97;4969529;28;20447;-82
2023/01/17 06:23:01;;;;;;;29.58;13.68;;;;;;;10.70;75.37;99991.69;5000204;28;20520;-80
2023/01/17 06:25:39;;;;;;;26.05;11.70;;;;;;;10.77;75.21;99980.06;4992230;28;20137;-82
2023/01/17 06:28:05;;;;;;;23.75;9.63;;;;;;;10.59;75.92;99979.50;4971294;28;21442;-82
2023/01/17 06:30:31;;;;;;;17.10;9.45;;;;;;;10.60;75.39;99967.72;4999405;28;20046;-82
2023/01/17 06:32:56;;;;;;;25.50;10.43;;;;;;;10.70;75.49;99976.41;4994839;28;20042;-82
2023/01/17 06:35:22;;;;;;;18.42;8.88;;;;;;;10.82;75.73;99981.38;4962550;28;20129;-83
2023/01/17 06:37:57;;;;;;;17.33;8.48;;;;;;;10.71;75.73;99970.00;4977613;28;20030;-84
2023/01/17 06:40:29;;;;;;;34.35;10.00;;;;;;;10.80;76.19;99983.41;4994845;28;20435;-83
2023/01/17 06:43:03;;;;;;;25.52;12.18;;;;;;;10.88;76.16;99986.03;4990688;28;20034;-84
2023/01/17 06:45:32;;;;;;;17.88;7.90;;;;;;;10.84;76.08;99980.19;4996092;28;20058;-84
2023/01/17 06:48:02;;;;;;;23.50;8.75;;;;;;;11.09;75.11;99986.19;5005510;28;20034;-84
2023/01/17 06:50:31;;;;;;;16.92;7.85;;;;;;;11.12;74.97;99972.41;4988985;28;20038;-83
2023/01/17 06:52:58;;;;;;;17.65;8.50;;;;;;;11.19;74.77;99999.38;4977786;28;20034;-81
2023/01/17 06:55:27;;;;;;;24.58;8.38;;;;;;;11.07;75.12;100009.72;4978883;28;20444;-84
2023/01/17 06:57:55;;;;;;;20.63;9.18;;;;;;;11.02;75.57;100014.00;4975543;28;20034;-81
2023/01/17 07:00:24;;;;;;;25.02;8.60;;;;;;;10.81;76.35;100011.94;4989234;28;20034;-86
2023/01/17 07:02:52;;;;;;;22.60;8.82;;;;;;;10.83;76.65;100004.56;4991056;28;20414;-83
2023/01/17 07:05:18;;;;;;;19.35;8.32;;;;;;;10.64;77.02;100013.91;4990673;28;20053;-84
2023/01/17 07:07:44;;;;;;;19.80;8.35;;;;;;;10.68;77.35;100024.13;5011610;28;20422;-79
2023/01/17 07:10:10;;;;;;;14.77;8.25;;;;;;;10.69;77.44;100020.41;4997693;28;20038;-79
2023/01/17 07:12:36;;;;;;;17.25;9.13;;;;;;;10.63;77.50;100022.97;4978084;28;20047;-83
2023/01/17 07:15:04;;;;;;;16.35;7.88;;;;;;;10.43;77.86;100014.53;4989993;28;20506;-84
2023/01/17 07:17:29;;;;;;;24.05;9.13;;;;;;;10.49;78.25;100036.16;4990401;28;20042;-80
2023/01/17 07:19:59;;;;;;;16.60;9.07;;;;;;;10.44;78.30;100037.69;4964422;28;20049;-82
2023/01/17 07:22:25;;;;;;;27.10;9.88;;;;;;;10.28;78.72;100022.47;4989927;28;20042;-81
2023/01/17 07:24:57;;;;;;;24.55;9.60;;;;;;;10.26;78.76;100014.56;4972645;28;20467;-80
2023/01/17 07:27:30;;;;;;;23.83;9.38;;;;;;;10.42;78.58;100031.66;4976333;28;20157;-79
2023/01/17 07:29:57;;;;;;;17.40;8.30;;;;;;;10.40;78.54;100031.00;4989139;28;20438;-79
2023/01/17 07:32:27;;;;;;;23.85;8.02;;;;;;;10.48;78.51;100036.34;4979167;28;20030;-82
2023/01/17 07:34:55;;;;;;;23.38;9.15;;;;;;;10.50;78.32;100026.25;4990421;28;20042;-81
2023/01/17 07:37:24;;;;;;;24.17;9.40;;;;;;;10.67;77.86;100043.94;4991198;28;20061;-83
2023/01/17 07:39:52;;;;;;;18.17;8.27;;;;;;;10.48;78.05;100009.47;4990106;28;20122;-83
2023/01/17 07:42:18;;;;;;;27.25;10.88;;;;;;;10.54;78.55;100039.16;4974464;28;20133;-85
2023/01/17 07:44:44;;;;;;;21.38;9.63;;;;;;;10.52;78.85;100040.34;4955715;28;20049;-84
2023/01/17 07:47:10;;;;;;;21.00;10.32;;;;;;;10.63;78.41;100031.03;4972033;28;20043;-84
2023/01/17 07:49:35;;;;;;;24.38;8.80;;;;;;;10.70;78.29;100032.88;4979434;28;20029;-82
2023/01/17 07:52:01;;;;;;;22.73;7.82;;;;;;;10.81;77.67;100030.78;4993547;28;20027;-80
2023/01/17 07:54:29;;;;;;;15.68;7.88;;;;;;;10.96;77.17;100016.38;4980999;28;20100;-88
2023/01/17 07:57:04;;;;;;;14.55;7.45;;;;;;;11.22;76.49;100035.88;4974807;28;20042;-90
2023/01/17 08:00:09;;;;;;;15.27;7.45;;;;;;;11.30;75.70;100038.50;5010562;28;20045;-89
2023/01/17 08:02:49;;;;;;;22.77;8.27;;;;;;;11.43;75.65;100022.56;5009493;28;20045;-88
2023/01/17 08:05:19;;;;;;;19.17;7.70;;;;;;;11.44;75.19;100029.63;5025556;28;20473;-91
2023/01/17 08:07:50;;;;;;;16.25;7.80;;;;;;;11.56;75.24;100011.16;4993916;28;20041;-90
2023/01/17 08:10:33;;;;;;;19.10;8.32;;;;;;;11.77;74.34;100007.75;5011289;28;20042;-89
2023/01/17 08:13:04;;;;;;;16.80;7.32;;;;;;;11.58;73.93;100006.44;5024934;28;20041;-86
2023/01/17 08:15:34;;;;;;;26.52;8.35;;;;;;;11.48;73.92;99987.88;5010091;28;20112;-90
2023/01/17 08:18:02;;;;;;;19.35;8.90;;;;;;;11.71;74.00;100025.50;5014311;28;20038;-89
2023/01/17 08:20:28;;;;;;;19.67;8.50;;;;;;;11.61;74.07;99993.47;4998532;28;20169;-89
2023/01/17 08:22:55;;;;;;;13.55;7.72;;;;;;;11.76;73.83;100016.88;4997123;28;20096;-88
2023/01/17 08:25:34;;;;;;;19.27;8.55;;;;;;;11.73;74.61;100023.47;5013992;28;20040;-87
2023/01/17 08:28:05;;;;;;;21.05;10.20;;;;;;;11.73;74.29;100022.59;5013419;28;20057;-89
2023/01/17 08:30:34;;;;;;;20.70;9.27;;;;;;;11.67;74.74;100013.41;5021864;28;20064;-89
2023/01/17 08:33:02;;;;;;;;;;;;;;;11.93;74.00;100015.69;5016556;28;20046;-87
2023/01/17 08:35:34;;;;;;;17.15;8.40;;;;;;;12.06;73.48;99989.94;4985579;28;19910;-89
2023/01/17 08:38:19;;;;;;;18.70;8.55;;;;;;;12.25;72.43;99975.91;5024504;28;20050;-87
2023/01/17 08:40:49;;;;;;;17.10;9.07;;;;;;;12.55;71.54;99962.34;5018317;28;20038;-89
2023/01/17 08:43:20;;;;;;;18.35;8.20;;;;;;;13.12;69.84;99966.88;5010374;28;20049;-90
2023/01/17 08:56:51;;;;;;;18.63;9.02;;;;;;;16.47;57.46;99962.78;5007408;28;20051;-89
2023/01/17 08:59:21;;;;;;;20.25;7.00;;;;;;;16.88;55.60;99953.41;5009355;28;20030;-90
2023/01/17 09:01:57;;;;;;;17.02;7.10;;;;;;;17.45;53.56;99956.88;5002477;28;20038;-90
2023/01/17 09:04:25;;;;;;;22.67;7.18;;;;;;;18.03;52.17;99949.44;5006742;28;20085;-88
2023/01/17 09:09:39;;;;;;;17.77;6.65;;;;;;;19.09;49.24;99968.97;5016296;28;20068;-92
2023/01/17 09:12:24;;;;;;;17.15;6.10;;;;;;;19.18;48.59;99951.22;5001355;28;20077;-90
2023/01/17 09:14:55;;;;;;;16.08;6.65;;;;;;;18.88;48.86;99932.19;5010657;28;20430;-87
2023/01/17 09:17:54;;;;;;;17.17;6.30;;;;;;;18.75;49.38;99952.25;4999660;28;20041;-88
2023/01/17 09:20:19;;;;;;;13.00;5.80;;;;;;;18.29;50.05;99927.34;5007919;28;20061;-87
2023/01/17 09:23:40;;;;;;;12.90;5.65;;;;;;;18.60;49.38;99922.72;5002433;28;20046;-85
2023/01/17 09:26:38;;;;;;;23.27;6.20;;;;;;;19.02;48.29;99897.41;4981568;28;20161;-86
2023/01/17 09:29:12;;;;;;;14.35;5.80;;;;;;;19.07;48.09;99890.19;5001704;28;20057;-87
2023/01/17 09:32:24;;;;;;;13.00;5.50;;;;;;;18.19;50.20;99905.31;5016461;28;20041;-92
2023/01/17 09:34:59;;;;;;;19.40;5.32;;;;;;;17.78;51.63;99914.94;5002586;28;20057;-84
2023/01/17 09:37:36;;;;;;;14.25;5.80;;;;;;;17.89;51.47;99922.38;5004379;28;20017;-84
2023/01/17 09:40:02;;;;;;;12.35;5.32;;;;;;;16.98;53.58;99910.28;5021728;28;20034;-84
2023/01/17 09:42:35;;;;;;;;;;;;;;;17.10;53.48;99913.13;5017334;28;20088;-84
2023/01/17 09:45:03;;;;;;;13.50;5.35;;;;;;;16.95;53.78;99899.88;4997936;28;19971;-80
2023/01/17 09:47:35;;;;;;;14.65;5.88;;;;;;;19.03;49.90;99920.84;4976378;28;20448;-85
2023/01/17 09:50:24;;;;;;;13.00;5.70;;;;;;;21.61;43.13;99913.69;5006719;28;20050;-83
2023/01/17 09:52:49;;;;;;;11.30;5.65;;;;;;;21.18;42.60;99881.56;4998608;28;20027;-87
2023/01/17 09:55:17;;;;;;;16.38;5.57;;;;;;;21.83;41.59;99901.94;4989367;28;20050;-86
2023/01/17 09:58:10;;;;;;;13.60;5.40;;;;;;;21.51;41.76;99897.13;4989991;28;20052;-90
2023/01/17 10:00:45;;;;;;;19.17;5.90;;;;;;;21.14;42.66;99905.00;4989813;28;20037;-85
2023/01/17 10:03:42;;;;;;;16.23;5.88;;;;;;;21.70;41.73;99906.72;5008049;28;20041;-85
2023/01/17 10:06:26;;;;;;;18.15;6.35;;;;;;;22.19;40.83;99902.38;4988949;28;20042;-91
2023/01/17 10:09:32;;;;;;;13.23;5.35;;;;;;;20.51;43.65;99910.47;4998097;28;20514;-90
2023/01/17 10:12:44;;;;;;;13.95;5.95;;;;;;;20.41;44.19;99913.00;5017142;28;20042;-88
2023/01/17 10:44:03;;;;;;;19.77;7.47;;;;;;;14.62;62.01;99872.69;3237399;26;20045;-88
2023/01/17 10:47:18;;;;;;;12.35;6.68;;;;;;;14.28;62.73;99861.78;5056123;28;20056;-88
2023/01/17 10:50:29;;;;;;;17.30;7.07;;;;;;;14.52;61.98;99854.94;5034271;28;20028;-90
2023/01/17 10:58:31;;;;;;;15.32;7.35;;;;;;;16.15;57.41;99831.72;5062336;22;20061;-90
2023/01/17 11:30:10;;;;;;;18.92;6.65;;;;;;;21.99;41.22;99810.75;4903703;23;20054;-92
2023/01/17 11:33:21;;;;;;;15.65;5.90;;;;;;;22.25;40.33;99811.03;4983097;28;20043;-90
2023/01/17 11:36:36;;;;;;;21.65;6.90;;;;;;;21.03;42.91;99820.13;4995519;28;20056;-91
2023/01/17 11:39:36;;;;;;;15.73;6.53;;;;;;;20.87;44.06;99821.78;4995069;28;20038;-90
2023/01/17 11:42:36;;;;;;;21.30;7.80;;;;;;;21.44;42.62;99817.19;5005169;28;20069;-92
2023/01/17 11:45:40;;;;;;;18.27;7.72;;;;;;;21.55;41.67;99771.66;4999204;28;20049;-90
2023/01/17 11:48:54;;;;;;;19.27;6.65;;;;;;;20.84;43.08;99800.44;4996118;28;20022;-88
2023/01/17 11:51:32;;;;;;;25.70;7.57;;;;;;;20.27;44.27;99775.16;4979481;28;20038;-90
2023/01/17 11:54:26;;;;;;;24.35;7.53;;;;;;;20.19;44.83;99807.25;4993289;28;20122;-90
2023/01/17 11:57:01;;;;;;;19.52;6.13;;;;;;;19.69;45.23;99810.66;4994607;28;20668;-91
2023/01/17 11:59:39;;;;;;;13.10;3.25;;;;;;;19.25;45.20;99809.41;4993231;28;20134;-89
2023/01/17 12:10:05;;;;;;;8.68;3.08;;;;;;;18.85;45.62;99810.13;4982519;26;20108;-89
2023/01/17 12:34:01;;;;;;;11.23;3.80;;;;;;;17.38;48.12;99803.97;4875471;26;20121;-90
2023/01/17 12:37:08;;;;;;;13.73;7.03;;;;;;;17.27;48.50;99804.72;5009600;28;20054;-89
2023/01/17 12:50:12;;;;;;;7.45;2.40;;;;;;;17.26;48.73;99786.78;6090034;23;21281;-89
2023/01/17 13:27:38;;;;;;;6.93;2.03;;;;;;;16.81;51.50;99825.00;4019725;23;20049;-91
2023/01/17 13:31:01;;;;;;;10.70;2.80;;;;;;;16.64;52.08;99817.38;4997481;28;20133;-92
2023/01/17 14:49:43;;;;;;;10.20;3.38;;;;;;;15.30;55.01;99837.25;2817429;23;20057;-88
2023/01/17 14:52:39;;;;;;;13.57;3.30;;;;;;;15.45;55.51;99869.50;4991837;28;20050;-90
2023/01/17 14:55:27;;;;;;;11.18;2.78;;;;;;;15.23;55.92;99872.44;5010772;28;20058;-91
2023/01/17 14:57:54;;;;;;;17.10;3.20;;;;;;;15.06;56.21;99841.47;4989992;28;20042;-89
2023/01/17 15:00:34;;;;;;;12.88;3.10;;;;;;;14.97;56.49;99855.19;4969077;28;20038;-88
2023/01/17 15:03:02;;;;;;;16.92;4.07;;;;;;;15.02;56.46;99845.63;4979540;28;20042;-88
2023/01/17 15:05:49;;;;;;;12.30;3.60;;;;;;;14.76;56.89;99844.59;4980224;28;20471;-89
2023/01/17 15:08:34;;;;;;;11.20;3.25;;;;;;;14.74;57.22;99854.78;4969324;28;20042;-89
2023/01/17 15:11:15;;;;;;;16.20;4.63;;;;;;;14.82;57.55;99872.69;4977741;28;20118;-91
2023/01/17 15:14:26;;;;;;;25.75;4.60;;;;;;;14.62;58.72;99861.84;4998296;28;20034;-89
2023/01/17 15:17:33;;;;;;;12.10;3.97;;;;;;;14.57;59.10;99884.94;5014523;28;20062;-90
2023/01/17 15:20:20;;;;;;;10.73;3.30;;;;;;;14.33;59.42;99863.88;4985157;28;20038;-91
2023/01/17 15:23:20;;;;;;;13.10;3.90;;;;;;;14.61;59.08;99895.34;5028804;28;20037;-92
2023/01/17 15:26:22;;;;;;;9.00;3.28;;;;;;;14.37;59.64;99867.81;4994600;28;20087;-90
2023/01/17 15:29:23;;;;;;;27.20;4.32;;;;;;;14.47;59.68;99875.53;4985966;28;20169;-91
2023/01/17 15:32:30;;;;;;;14.77;4.30;;;;;;;14.50;59.61;99865.13;4993963;28;20368;-89
2023/01/17 15:35:27;;;;;;;13.18;4.63;;;;;;;14.24;60.81;99865.09;4988689;28;20119;-88
2023/01/17 15:38:26;;;;;;;15.82;4.90;;;;;;;14.44;61.40;99905.69;5001255;28;20106;-91
2023/01/17 15:41:40;;;;;;;17.23;4.97;;;;;;;14.20;62.80;99890.88;5010745;28;20022;-89
2023/01/17 16:16:22;;;;;;;17.95;5.10;;;;;;;13.21;68.00;99911.72;4255852;23;20097;31
2023/01/17 16:18:53;;;;;;;32.92;14.48;;;;;;;13.01;68.46;99889.97;4967667;28;20061;-87
2023/01/17 16:22:03;;;;;;;41.88;16.73;;;;;;;12.80;68.92;99890.81;4949170;28;20049;-91
2023/01/17 16:24:41;;;;;;;25.48;9.23;;;;;;;12.95;69.20;99915.03;4957771;29;20046;-92
2023/01/17 16:27:18;;;;;;;26.17;9.32;;;;;;;12.77;69.79;99899.31;4953650;28;20050;-87
2023/01/17 16:29:50;;;;;;;22.38;7.25;;;;;;;12.87;69.36;99907.91;4939176;28;20074;-87
2023/01/17 16:34:56;;;;;;;39.58;8.85;;;;;;;12.71;69.53;99897.38;4320250;26;20042;-88
2023/01/17 16:37:29;;;;;;;21.88;6.70;;;;;;;12.78;70.24;99917.19;4969630;28;20050;-89
2023/01/17 16:40:24;;;;;;;20.67;4.68;;;;;;;12.71;71.06;99934.31;4987486;28;20119;-88
2023/01/17 16:42:55;;;;;;;16.45;4.90;;;;;;;12.51;71.81;99929.56;4992885;28;20066;-92
2023/01/17 16:45:47;;;;;;;14.13;4.13;;;;;;;12.55;72.21;99928.16;4975032;28;20046;-87
2023/01/17 16:48:16;;;;;;;17.88;4.70;;;;;;;12.37;72.71;99930.44;4974530;28;20050;-90
2023/01/17 16:50:58;;;;;;;19.35;4.97;;;;;;;12.26;72.98;99920.97;4964621;28;20108;-89
2023/01/17 16:56:10;;;;;;;21.20;4.75;;;;;;;12.25;73.76;99930.09;4988634;28;20054;-89
2023/01/17 16:59:00;;;;;;;20.55;5.90;;;;;;;12.25;73.69;99932.81;4966042;28;20035;-87
2023/01/17 17:01:33;;;;;;;23.40;4.53;;;;;;;12.21;73.61;99918.03;4997211;28;20023;-89
2023/01/17 17:09:51;;;;;;;21.13;4.85;;;;;;;12.27;73.65;99933.44;4990437;28;20058;-86
2023/01/17 17:12:16;;;;;;;20.95;3.97;;;;;;;12.29;74.00;99947.56;4990000;28;20034;-88
2023/01/17 17:15:08;;;;;;;20.00;4.47;;;;;;;12.17;74.62;99943.69;5010351;23;20081;-87
2023/01/17 17:17:39;;;;;;;23.42;5.53;;;;;;;12.12;74.75;99938.03;5187798;22;20061;-87
2023/01/17 17:20:41;;;;;;;26.90;5.03;;;;;;;12.03;74.69;99921.13;5151469;23;20049;-90
2023/01/17 17:23:32;;;;;;;30.83;6.10;;;;;;;12.14;75.06;99935.97;5032306;23;20038;-89
2023/01/17 17:26:19;;;;;;;26.58;6.70;;;;;;;12.09;74.98;99927.63;4997950;28;20042;-86
2023/01/17 17:29:12;;;;;;;26.05;6.60;;;;;;;11.91;74.82;99890.31;4997426;28;20074;-87
2023/01/17 17:32:10;;;;;;;22.10;4.70;;;;;;;11.94;76.25;99933.88;5116413;23;20042;-85
2023/01/17 17:34:56;;;;;;;18.23;4.82;;;;;;;12.03;75.95;99916.59;4993849;28;20050;-87
2023/01/17 17:37:42;;;;;;;28.08;8.07;;;;;;;12.02;75.72;99927.53;4996398;28;20057;-87
2023/01/17 17:40:19;;;;;;;23.48;5.63;;;;;;;12.06;75.79;99922.59;4956216;28;20047;-86
2023/01/17 17:42:51;;;;;;;20.00;4.72;;;;;;;12.14;74.81;99911.72;4970238;28;20167;-87
2023/01/17 17:45:19;;;;;;;18.55;5.07;;;;;;;12.23;74.58;99926.75;4990860;28;20058;-82
2023/01/17 17:47:44;;;;;;;16.92;4.57;;;;;;;12.26;74.24;99915.59;5001425;28;20090;-85
2023/01/17 17:50:12;;;;;;;20.42;4.65;;;;;;;12.40;73.98;99930.06;4978302;28;20069;-83
2023/01/17 17:52:39;;;;;;;23.20;4.82;;;;;;;12.49;73.91;99933.47;4976250;28;20064;-83
2023/01/17 17:55:06;;;;;;;18.13;5.43;;;;;;;12.52;73.45;99927.69;4962200;28;20077;-84
2023/01/17 17:57:32;;;;;;;17.75;4.75;;;;;;;12.44;73.36;99912.47;4965026;28;20120;-86